Flight Briefing for CPX966

Departure Arrival
Ramstein Air Force Base (ETAR)
Click to view FAA NOTAMS
Li├Ęge Airport (EBLG)
Click to view FAA NOTAMS
Departure Time Arrival Time
N/A N/A
Aircraft Distance
B767-300BDSF 111nm
Departure METAR Arrival METAR
ETAR 271056Z 26005KT 9999 BKN014 OVC020 16/14 A2986 RMK AO2A RAB45E54DZB54E55 SLP114 P0000 T01620142 $ EBLG 271050Z 30008KT 270V330 9999 SCT028 BKN042 16/10 Q1011 NOSIG
Suggested Route
TOLEY2N RUDOT GESLO GESLO4X


View recent IFR Routes data
Notes
EMPTY | NON-REVENUE REPOSITIONING LEG

Charts and Procedures

Charts for ETAR
No chart available
Charts for EBLG
No chart available

Windy.com Weather Map